Detalii statie AGROMEC VLAD TEPES [00001989]

Toti senzorii

Date Temperatura solului [C]Precipitatii [mm]Voltaj baterie [mV]Leaf Wetness [Min]HC Air temperature [C]HC Relative humidity [%]Punctul de roua [C]
medieminmaxsumaultimatimpmedieminmaxmediemediemin
2017-10-20 09:00:00 13.2 13.1 13.3 0 7314 11.82 10.85 13.64 0 0 0
2017-10-20 10:00:00 13.3 13.2 13.8 0 7314 15.82 13.9 17.28 0 0 0
2017-10-20 11:00:00 13.7 13.4 14 0 7216 18.82 17.23 20.18 0 0 0
2017-10-20 12:00:00 14.5 14 14.9 0 7294 21.04 20.41 22.01 0 0 0
2017-10-20 13:00:00 15.4 15 15.9 0 7274 22.85 21.7 23.48 0 0 0
2017-10-20 14:00:00 16.3 15.8 17 0 7186 24.06 23.17 24.62 0 0 0
2017-10-20 15:00:00 16.8 16.6 17.5 0 6942 23.36 23.19 23.55 0 0 0
2017-10-20 16:00:00 17.1 17 17.2 0 6884 23.1 22.43 23.45 0 0 0
2017-10-20 17:00:00 17 17 17.2 0 6806 20.67 18.55 22.36 0 0 0
2017-10-20 18:00:00 17 16.9 17.8 0 6718 16.47 15.42 18.01 0 0 0
2017-10-20 19:00:00 16.8 16.6 17.5 0 6668 14.5 13.71 15.05 0 0 0
2017-10-20 20:00:00 16.5 16.4 16.7 0 6640 13.22 12.73 13.83 0 0 0
2017-10-20 21:00:00 16.1 15.9 16.3 0 6620 12.45 12.25 12.91 0 0 0
2017-10-20 22:00:00 16 15.7 17.2 0 6610 11.64 11.2 12.3 0 0 0
2017-10-20 23:00:00 15.8 15.5 16.7 0 6610 10.59 10.23 11.03 0 0 0
2017-10-21 00:00:00 15.5 15.1 16.4 0 6600 9.78 9.54 10.08 0 0 0
2017-10-21 01:00:00 15.1 14.7 15.3 0 6572 9.48 8.94 9.91 0 0 0
2017-10-21 02:00:00 14.9 14.8 15 0 6590 9.06 8.83 9.27 0 0 0
2017-10-21 03:00:00 14.6 14.5 14.8 0 6590 8.72 8.19 9.42 0 0 0
2017-10-21 04:00:00 14.5 14.4 14.7 0 6590 7.74 7.32 8.4 0 0 0
2017-10-21 05:00:00 14.3 14.1 15.3 0 6590 7.35 7.19 7.59 0 0 0
2017-10-21 06:00:00 14 13.8 14.1 0 6590 6.93 6.17 7.31 0 0 0
2017-10-21 07:00:00 13.7 13.7 13.9 0 6562 7.24 6.07 8.66 0 0 0
2017-10-21 08:00:00 13.7 13.6 14.6 0 6640 8.95 8.65 9.29 0 0 0
2017-10-21 09:00:00 13.4 13.4 13.6 0 6738 9.48 9.21 9.9 0 0 0
2017-10-21 10:00:00 13.7 13.5 14.7 0 6834 10.58 10.01 11.14 0 0 0
2017-10-21 11:00:00 13.8 13.6 14 0 6874 11.29 11.04 11.72 0 0 0
2017-10-21 12:00:00 14.1 13.9 14.9 0 7206 12.1 11.28 12.88 0 0 0
2017-10-21 13:00:00 14.4 14.3 14.7 0 7158 14.37 12.86 16.56 0 0 0
2017-10-21 14:00:00 15 14.8 15.3 0.2 7040 19.01 16.78 19.94 0 0 0
2017-10-21 15:00:00 15.7 15.4 15.9 0 6962 18.77 18.57 19.31 0 0 0
2017-10-21 16:00:00 15.9 15.8 16.2 0 6884 18.76 18.52 18.99 0 0 0
2017-10-21 17:00:00 16.2 16 17.1 0 6806 16.61 15.29 18.13 0 0 0
2017-10-21 18:00:00 15.9 15.7 16.1 0 6708 13.41 11.94 14.92 0 0 0
2017-10-21 19:00:00 15.7 15.6 16 0 6668 11.6 11.13 12.11 0 0 0
2017-10-21 20:00:00 15.5 15.4 15.7 0 6600 10.75 10.26 11.12 0 0 0
2017-10-21 21:00:00 15.2 15 15.5 0 6582 10.51 10.04 11.1 0 0 0
2017-10-21 22:00:00 15 14.9 15.9 0 6600 10.87 10.45 11.17 0 0 0
2017-10-21 23:00:00 14.7 14.6 15 0 6572 10.84 10.38 11.19 0 0 0
2017-10-22 00:00:00 14.6 14.5 15.4 0 6590 10.97 10.54 11.18 0 0 0
2017-10-22 01:00:00 14.4 14 14.7 0 6572 10.81 10.68 10.91 0 0 0
2017-10-22 02:00:00 14.3 14.2 14.5 0 6590 10.74 10.62 10.89 0 0 0
2017-10-22 03:00:00 14.3 14.2 14.4 0 6590 10.96 10.6 12.12 0 0 0
2017-10-22 04:00:00 14.2 14.1 15.2 0 6590 12.31 12.08 12.54 0 0 0
2017-10-22 05:00:00 14.2 14 14.9 0 6590 12.26 12.04 12.4 0 0 0
2017-10-22 06:00:00 14.1 13.9 15.1 0 6590 12 11.84 12.27 0 0 0
2017-10-22 07:00:00 13.9 13.9 14 0 6572 11.55 10.99 11.76 0 0 0